This is the latest recevied weather packets stored in our database for station/object R1ZCU-14. If no packets are shown the sender has not sent any weather packets the latest 10 day(s).
| Time | Temp. | Humidity | Pressure | Rain* | Wind** | Luminosity | Snow |
|---|---|---|---|---|---|---|---|
| 1777724360 | 10.56° C | 55% | 987.7 hPa | - | - | - | - |
| 1777723760 | 11.11° C | 54% | 987.9 hPa | - | - | - | - |
| 1777723159 | 11.67° C | 53% | 987.9 hPa | - | - | - | - |
| 1777722559 | 11.67° C | 52% | 988 hPa | - | - | - | - |
| 1777721958 | 12.22° C | 51% | 988 hPa | - | - | - | - |
| 1777721358 | 12.78° C | 49% | 988.1 hPa | - | - | - | - |
| 1777720757 | 12.78° C | 48% | 988.2 hPa | - | - | - | - |
| 1777720157 | 12.78° C | 50% | 988.3 hPa | - | - | - | - |
| 1777719556 | 12.22° C | 51% | 988.4 hPa | - | - | - | - |
| 1777718956 | 12.22° C | 50% | 988.5 hPa | - | - | - | - |
| 1777718355 | 12.22° C | 51% | 988.7 hPa | - | - | - | - |
| 1777717755 | 12.78° C | 49% | 988.8 hPa | - | - | - | - |
| 1777717154 | 12.22° C | 50% | 989 hPa | - | - | - | - |
| 1777716554 | 11.67° C | 53% | 989.2 hPa | - | - | - | - |
| 1777715953 | 11.11° C | 55% | 989.5 hPa | - | - | - | - |
| 1777715353 | 11.11° C | 55% | 989.6 hPa | - | - | - | - |
| 1777714827 | 10.56° C | 56% | 989.8 hPa | - | - | - | - |
| 1777714752 | 10.56° C | 56% | 989.7 hPa | - | - | - | - |
| 1777714147 | 10.56° C | 56% | 990 hPa | - | - | - | - |
| 1777713546 | 11.11° C | 55% | 990.1 hPa | - | - | - | - |
| 1777712946 | 11.11° C | 54% | 990.1 hPa | - | - | - | - |
| 1777712345 | 11.11° C | 52% | 990.2 hPa | - | - | - | - |
| 1777711745 | 11.67° C | 50% | 990.3 hPa | - | - | - | - |
| 1777711144 | 12.22° C | 49% | 990.3 hPa | - | - | - | - |
| 1777710544 | 12.22° C | 48% | 990.4 hPa | - | - | - | - |
* Rain since midnight (hover to see other rain measurements)
** Current wind speed in m/s (hover to see current wind gust speed)